Time;durP1;ratioP1;P1;durP2;ratioP2;P2;SDS_P1;SDS_P2;PMS_P1;PMS_P2;Temp;Humidity;BMP_temperature;BMP_pressure;BME280_temperature;BME280_humidity;BME280_pressure;Samples;Min_cycle;Max_cycle;Signal;HPM_P1;HPM_P2
2023/12/01 00:01:18;;;;;;;77.15;19.63;;;1.80;99.90;;;;;;5066596;28;20466;-74
2023/12/01 00:03:44;;;;;;;99.07;22.00;;;1.80;99.90;;;;;;5066382;28;20027;-74
2023/12/01 00:06:10;;;;;;;88.28;20.77;;;1.80;99.90;;;;;;5048909;28;20428;-73
2023/12/01 00:08:35;;;;;;;86.55;21.38;;;1.80;99.90;;;;;;5056632;28;20402;-74
2023/12/01 00:11:01;;;;;;;99.13;21.85;;;1.80;99.90;;;;;;5066631;28;20047;-73
2023/12/01 00:13:27;;;;;;;76.18;19.88;;;1.80;99.90;;;;;;5048401;28;20410;-74
2023/12/01 00:15:53;;;;;;;102.20;20.90;;;1.80;99.90;;;;;;5066515;28;20109;-74
2023/12/01 00:18:18;;;;;;;80.38;20.17;;;1.80;99.90;;;;;;5066253;28;20478;-74
2023/12/01 00:20:44;;;;;;;76.55;20.15;;;1.80;99.90;;;;;;5066623;28;20023;-74
2023/12/01 00:23:10;;;;;;;86.40;20.17;;;1.80;99.90;;;;;;5066148;28;20016;-74
2023/12/01 00:25:35;;;;;;;58.75;16.88;;;1.80;99.90;;;;;;5066100;28;20024;-74
2023/12/01 00:28:01;;;;;;;78.18;19.42;;;1.80;99.90;;;;;;5066015;28;20020;-74
2023/12/01 00:30:30;;;;;;;86.97;20.35;;;1.80;99.90;;;;;;5066666;28;20029;-74
2023/12/01 00:32:56;;;;;;;78.55;19.90;;;1.70;99.90;;;;;;5066100;28;20477;-72
2023/12/01 00:35:22;;;;;;;76.80;20.83;;;1.70;99.90;;;;;;5066528;28;20025;-72
2023/12/01 00:37:47;;;;;;;88.72;20.67;;;1.70;99.90;;;;;;5065992;28;20063;-72
2023/12/01 00:40:13;;;;;;;82.57;20.10;;;1.70;99.90;;;;;;5052194;28;20041;-72
2023/12/01 00:42:39;;;;;;;82.47;20.08;;;1.70;99.90;;;;;;5065836;28;20393;-72
2023/12/01 00:45:05;;;;;;;83.47;20.13;;;1.70;99.90;;;;;;5066146;28;20099;-73
2023/12/01 00:47:31;;;;;;;82.95;19.48;;;1.70;99.90;;;;;;5065824;28;20497;-72
2023/12/01 00:49:57;;;;;;;77.70;18.77;;;1.70;99.90;;;;;;5066618;28;20029;-72
2023/12/01 00:52:22;;;;;;;80.55;18.65;;;1.70;99.90;;;;;;5065932;28;20521;-72
2023/12/01 00:54:48;;;;;;;80.10;20.63;;;1.80;99.90;;;;;;5066300;28;20103;-72
2023/12/01 00:57:14;;;;;;;86.93;20.88;;;1.70;99.90;;;;;;5069458;28;20023;-72
2023/12/01 00:59:39;;;;;;;85.15;19.75;;;1.70;99.90;;;;;;5069697;28;20101;-72
2023/12/01 01:02:05;;;;;;;84.18;20.08;;;1.70;99.90;;;;;;5069342;28;20032;-72
2023/12/01 01:04:34;;;;;;;95.05;22.00;;;1.70;99.90;;;;;;5069506;28;20104;-72
2023/12/01 01:06:59;;;;;;;93.43;21.35;;;1.80;99.90;;;;;;5069330;28;20032;-72
2023/12/01 01:09:25;;;;;;;92.93;21.48;;;1.70;99.90;;;;;;5051578;28;20528;-72
2023/12/01 01:11:51;;;;;;;99.97;22.90;;;1.70;99.90;;;;;;5067787;28;20033;-72
2023/12/01 01:14:16;;;;;;;94.72;20.67;;;1.70;99.90;;;;;;5054425;28;20024;-72
2023/12/01 01:16:42;;;;;;;99.93;21.63;;;1.70;99.90;;;;;;5069576;28;20035;-72
2023/12/01 01:19:08;;;;;;;91.30;21.77;;;1.70;99.90;;;;;;5069223;28;20496;-72
2023/12/01 01:21:33;;;;;;;95.85;21.88;;;1.70;99.90;;;;;;5069055;28;20470;-72
2023/12/01 01:23:59;;;;;;;93.47;22.88;;;1.70;99.90;;;;;;5069332;28;20413;-72
2023/12/01 01:26:25;;;;;;;102.45;22.77;;;1.70;99.90;;;;;;5069349;28;20017;-72
2023/12/01 01:28:51;;;;;;;107.80;23.15;;;1.70;99.90;;;;;;5068585;28;20036;-72
2023/12/01 01:31:17;;;;;;;99.53;21.23;;;1.70;99.90;;;;;;5068932;28;20051;-72
2023/12/01 01:33:43;;;;;;;118.93;22.95;;;1.70;99.90;;;;;;5068609;28;20490;-72
2023/12/01 01:36:09;;;;;;;103.20;22.75;;;1.70;99.90;;;;;;5056669;28;20075;-72
2023/12/01 01:38:36;;;;;;;100.85;21.98;;;1.70;99.90;;;;;;5061744;28;20021;-72
2023/12/01 01:41:02;;;;;;;104.18;21.70;;;1.70;99.90;;;;;;5061888;28;20075;-73
2023/12/01 01:43:27;;;;;;;108.15;22.73;;;1.70;99.90;;;;;;5068422;28;20032;-72
2023/12/01 01:46:06;;;;;;;112.00;21.80;;;1.70;99.90;;;;;;5068811;28;20036;-73
2023/12/01 01:48:33;;;;;;;104.65;21.35;;;1.70;99.90;;;;;;5068157;28;20082;-72
2023/12/01 01:51:00;;;;;;;98.10;22.75;;;1.60;99.90;;;;;;5064105;28;20033;-73
2023/12/01 01:53:27;;;;;;;117.47;23.63;;;1.60;99.90;;;;;;5068178;28;20032;-73
2023/12/01 01:55:54;;;;;;;120.35;22.92;;;1.60;99.90;;;;;;5068487;28;20107;-73
2023/12/01 01:58:20;;;;;;;105.72;21.50;;;1.60;99.90;;;;;;5068104;28;20020;-72
2023/12/01 02:00:49;;;;;;;93.72;20.80;;;1.60;99.90;;;;;;5050251;28;20058;-73
2023/12/01 02:03:16;;;;;;;135.02;24.63;;;1.60;99.90;;;;;;5068214;28;20082;-72
2023/12/01 02:05:42;;;;;;;124.50;25.05;;;1.60;99.90;;;;;;5054322;28;20067;-72
2023/12/01 02:08:22;;;;;;;116.10;25.40;;;1.60;99.90;;;;;;5067123;28;20024;-72
2023/12/01 02:10:47;;;;;;;139.43;26.65;;;1.50;99.90;;;;;;5050164;28;20025;-72
2023/12/01 02:13:14;;;;;;;121.03;25.85;;;1.50;99.90;;;;;;5050122;28;20032;-72
2023/12/01 02:15:41;;;;;;;126.93;25.60;;;1.50;99.90;;;;;;5068762;28;20021;-72
2023/12/01 02:18:25;;;;;;;118.93;24.95;;;1.50;99.90;;;;;;5036227;28;20017;-72
2023/12/01 02:20:51;;;;;;;125.30;26.63;;;1.60;99.90;;;;;;5055791;28;20021;-72
2023/12/01 02:23:17;;;;;;;131.55;26.67;;;1.50;99.90;;;;;;5063463;28;20025;-72
2023/12/01 02:25:43;;;;;;;157.18;29.45;;;1.60;99.90;;;;;;5068156;28;20082;-72
2023/12/01 02:28:09;;;;;;;121.53;26.98;;;1.60;99.90;;;;;;5046443;28;20017;-72
2023/12/01 02:30:35;;;;;;;135.20;27.25;;;1.60;99.90;;;;;;5058834;28;20028;-73
2023/12/01 02:33:01;;;;;;;129.00;27.98;;;1.60;99.90;;;;;;5067713;28;20127;-72
2023/12/01 02:35:29;;;;;;;131.23;27.65;;;1.60;99.90;;;;;;5050334;28;20489;-72
2023/12/01 02:38:04;;;;;;;133.52;29.52;;;1.60;99.90;;;;;;5053419;28;20017;-72
2023/12/01 02:40:30;;;;;;;115.43;25.20;;;1.60;99.90;;;;;;5043247;28;20079;-73
2023/12/01 02:42:56;;;;;;;121.65;26.45;;;1.60;99.90;;;;;;5067273;28;20097;-73
2023/12/01 02:45:23;;;;;;;97.70;24.73;;;1.70;99.90;;;;;;5067995;28;20025;-72
2023/12/01 02:47:49;;;;;;;106.80;26.65;;;1.70;99.90;;;;;;5067694;28;20032;-73
2023/12/01 02:50:18;;;;;;;99.95;24.40;;;1.70;99.90;;;;;;5067764;28;20635;-72
2023/12/01 02:52:44;;;;;;;107.15;25.75;;;1.70;99.90;;;;;;5049160;28;20024;-72
2023/12/01 02:55:11;;;;;;;124.57;28.05;;;1.70;99.90;;;;;;5067690;28;20025;-72
2023/12/01 02:57:39;;;;;;;118.38;26.45;;;1.70;99.90;;;;;;5049877;28;20085;-73
2023/12/01 03:00:13;;;;;;;115.82;25.55;;;1.70;99.90;;;;;;5067377;28;20429;-72
2023/12/01 03:02:43;;;;;;;102.45;24.45;;;1.80;99.90;;;;;;5049142;28;20059;-72
2023/12/01 03:05:09;;;;;;;88.35;22.17;;;1.80;99.90;;;;;;5067618;28;20469;-72
2023/12/01 03:07:39;;;;;;;97.53;25.15;;;1.80;99.90;;;;;;5051586;28;20607;-72
2023/12/01 03:10:09;;;;;;;98.47;27.27;;;1.80;99.90;;;;;;5067574;28;20052;-72
2023/12/01 03:12:36;;;;;;;102.68;25.33;;;1.80;99.90;;;;;;5066632;28;20028;-73
2023/12/01 03:15:04;;;;;;;105.97;25.63;;;1.70;99.90;;;;;;5049175;28;20035;-72
2023/12/01 03:17:30;;;;;;;98.47;24.70;;;1.70;99.90;;;;;;5067324;28;20421;-72
2023/12/01 03:19:57;;;;;;;104.88;26.08;;;1.80;99.90;;;;;;5066784;28;20016;-72
2023/12/01 03:22:22;;;;;;;96.18;25.20;;;1.70;99.90;;;;;;5067055;28;20029;-73
2023/12/01 03:24:49;;;;;;;90.30;24.38;;;1.70;99.90;;;;;;5048824;28;20489;-72
2023/12/01 03:27:15;;;;;;;79.63;22.65;;;1.80;99.90;;;;;;5067055;28;20028;-73
2023/12/01 03:29:41;;;;;;;82.20;23.52;;;1.80;99.90;;;;;;5051468;28;20028;-73
2023/12/01 03:32:07;;;;;;;77.72;21.92;;;1.80;99.90;;;;;;5066748;28;20025;-72
2023/12/01 03:34:33;;;;;;;79.82;22.48;;;1.80;99.90;;;;;;5048437;28;20033;-73
2023/12/01 03:36:59;;;;;;;77.97;20.80;;;1.80;99.90;;;;;;5066702;28;20028;-72
2023/12/01 03:39:25;;;;;;;77.38;21.88;;;1.80;99.90;;;;;;5066483;28;20090;-72
2023/12/01 03:41:52;;;;;;;82.72;22.27;;;1.80;99.90;;;;;;5066697;28;20755;-73
2023/12/01 03:44:18;;;;;;;82.57;21.98;;;1.80;99.90;;;;;;5066511;28;20024;-72
2023/12/01 03:46:44;;;;;;;79.00;21.80;;;1.80;99.90;;;;;;5066568;28;20036;-72
2023/12/01 03:49:09;;;;;;;71.57;20.65;;;1.80;99.90;;;;;;5066458;28;20485;-72
2023/12/01 03:51:36;;;;;;;75.57;21.67;;;1.80;99.90;;;;;;5067194;28;20028;-73
2023/12/01 03:54:02;;;;;;;69.90;20.48;;;1.80;99.90;;;;;;5066468;28;20066;-73
2023/12/01 03:56:28;;;;;;;70.78;20.20;;;1.90;99.90;;;;;;5066738;28;20171;-72
2023/12/01 03:58:55;;;;;;;73.70;20.73;;;1.90;99.90;;;;;;5066560;28;20017;-72
2023/12/01 04:01:26;;;;;;;71.10;20.52;;;1.90;99.90;;;;;;5067100;28;20041;-73
2023/12/01 04:03:51;;;;;;;69.90;19.90;;;1.90;99.90;;;;;;5066621;28;20111;-72
2023/12/01 04:06:17;;;;;;;78.00;21.13;;;1.90;99.90;;;;;;5067304;28;20632;-72
2023/12/01 04:08:43;;;;;;;70.70;20.17;;;1.90;99.90;;;;;;5066018;28;20501;-72
2023/12/01 04:11:09;;;;;;;65.85;19.33;;;1.90;99.90;;;;;;5045174;28;20025;-72
2023/12/01 04:13:35;;;;;;;68.15;20.35;;;1.90;99.90;;;;;;5056693;28;20028;-72
2023/12/01 04:16:01;;;;;;;72.28;20.90;;;1.90;99.90;;;;;;5066394;28;20028;-72
2023/12/01 04:18:29;;;;;;;74.13;20.25;;;1.90;99.90;;;;;;5066129;28;20028;-72
2023/12/01 04:20:57;;;;;;;77.88;21.60;;;2.00;99.90;;;;;;5066374;28;20806;-72
2023/12/01 04:23:23;;;;;;;64.53;18.92;;;2.00;99.90;;;;;;5060918;28;20029;-72
2023/12/01 04:25:49;;;;;;;83.38;21.45;;;2.00;99.90;;;;;;5066654;28;20055;-72
2023/12/01 04:28:15;;;;;;;68.63;20.08;;;2.00;99.90;;;;;;5066057;28;20036;-72
2023/12/01 04:30:42;;;;;;;65.68;19.98;;;2.00;99.90;;;;;;5057797;28;20573;-71
2023/12/01 04:33:08;;;;;;;65.45;19.10;;;1.90;99.90;;;;;;5069746;28;20070;-72
2023/12/01 04:35:35;;;;;;;67.97;20.48;;;2.00;99.90;;;;;;5069185;28;20020;-72
2023/12/01 04:38:05;;;;;;;58.17;17.25;;;2.00;99.90;;;;;;5068754;28;20025;-72
2023/12/01 04:40:36;;;;;;;71.07;19.15;;;2.00;99.90;;;;;;5070659;28;20043;-74
2023/12/01 04:43:03;;;;;;;68.03;18.95;;;2.00;99.90;;;;;;5075014;28;20031;-72
2023/12/01 04:45:32;;;;;;;63.92;19.85;;;2.00;99.90;;;;;;5055888;28;20212;-72
2023/12/01 04:47:58;;;;;;;64.55;19.55;;;2.00;99.90;;;;;;5069632;28;20024;-72
2023/12/01 04:50:29;;;;;;;68.10;20.10;;;2.00;99.90;;;;;;5069930;28;20116;-72
2023/12/01 04:52:56;;;;;;;72.82;19.85;;;2.00;99.90;;;;;;5069635;28;20035;-73
2023/12/01 04:55:27;;;;;;;68.40;19.92;;;2.00;99.90;;;;;;5069618;28;20481;-72
2023/12/01 04:57:54;;;;;;;84.72;21.33;;;2.10;99.90;;;;;;5069595;28;20029;-72
2023/12/01 05:00:22;;;;;;;77.25;21.02;;;2.10;99.90;;;;;;5051542;28;20485;-72
2023/12/01 05:02:53;;;;;;;64.85;19.95;;;2.00;99.90;;;;;;5055688;28;20103;-72
2023/12/01 05:05:20;;;;;;;63.53;19.45;;;2.00;99.90;;;;;;5070000;28;20039;-72
2023/12/01 05:07:50;;;;;;;67.15;20.25;;;2.10;99.90;;;;;;5069338;28;20517;-72
2023/12/01 05:10:20;;;;;;;81.63;22.40;;;2.10;99.90;;;;;;5069968;28;20082;-73
2023/12/01 05:12:50;;;;;;;78.63;20.13;;;2.10;99.90;;;;;;5069191;28;20270;-73
2023/12/01 05:15:20;;;;;;;76.53;20.33;;;2.10;99.90;;;;;;5069550;28;20558;-72
2023/12/01 05:17:53;;;;;;;97.10;22.23;;;2.10;99.90;;;;;;5054287;28;20021;-72
2023/12/01 05:20:21;;;;;;;65.32;20.00;;;2.10;99.90;;;;;;5069559;28;20020;-72
2023/12/01 05:22:48;;;;;;;85.13;22.58;;;2.10;99.90;;;;;;5069466;28;20021;-72
2023/12/01 05:25:15;;;;;;;71.13;21.83;;;2.10;99.90;;;;;;5062616;28;20028;-72
2023/12/01 05:27:45;;;;;;;70.50;21.50;;;2.10;99.90;;;;;;5051083;28;20498;-72
2023/12/01 05:30:15;;;;;;;81.35;23.35;;;2.10;99.90;;;;;;5070028;28;20144;-72
2023/12/01 05:32:46;;;;;;;80.47;23.45;;;2.10;99.90;;;;;;5069311;28;20024;-73
2023/12/01 05:35:12;;;;;;;79.75;22.85;;;2.20;99.90;;;;;;5055747;28;20016;-72
2023/12/01 05:37:46;;;;;;;87.25;23.85;;;2.10;99.90;;;;;;5068160;28;20027;-72
2023/12/01 05:40:14;;;;;;;84.80;23.30;;;2.10;99.90;;;;;;5035691;28;20050;-72
2023/12/01 05:42:44;;;;;;;93.10;24.25;;;2.10;99.90;;;;;;5066520;28;20397;-72
2023/12/01 05:45:14;;;;;;;81.55;22.60;;;2.20;99.90;;;;;;5067563;28;20023;-72
2023/12/01 05:47:45;;;;;;;79.93;24.10;;;2.20;99.90;;;;;;5049690;28;20119;-72
2023/12/01 05:50:18;;;;;;;78.82;22.25;;;2.10;99.90;;;;;;5067603;28;20024;-72
2023/12/01 05:52:46;;;;;;;66.35;19.48;;;2.10;99.90;;;;;;5054515;28;20059;-72
2023/12/01 05:55:25;;;;;;;75.03;22.15;;;2.20;99.90;;;;;;5067319;28;20493;-72
2023/12/01 05:57:56;;;;;;;77.43;21.30;;;2.20;99.90;;;;;;5054569;28;20111;-72
2023/12/01 06:00:26;;;;;;;90.72;22.75;;;2.20;99.90;;;;;;5069152;28;20043;-72
2023/12/01 06:02:52;;;;;;;85.47;23.65;;;2.20;99.90;;;;;;5054815;28;20023;-72
2023/12/01 06:05:20;;;;;;;78.57;21.55;;;2.20;99.90;;;;;;5068655;28;20028;-72
2023/12/01 06:07:49;;;;;;;81.07;22.60;;;2.20;99.90;;;;;;5068495;28;20017;-72
2023/12/01 06:10:16;;;;;;;67.05;20.90;;;2.20;99.90;;;;;;5068660;28;20099;-73
2023/12/01 06:12:42;;;;;;;72.55;21.85;;;2.20;99.90;;;;;;5068511;28;20031;-72
2023/12/01 06:15:13;;;;;;;84.00;22.25;;;2.20;99.90;;;;;;5068703;28;20464;-72
2023/12/01 06:17:41;;;;;;;82.85;21.35;;;2.20;99.90;;;;;;5068291;28;20115;-72
2023/12/01 06:20:17;;;;;;;88.18;22.35;;;2.10;99.90;;;;;;5050222;28;20045;-72
2023/12/01 06:22:59;;;;;;;63.38;20.90;;;2.20;99.90;;;;;;5068265;28;20032;-73
2023/12/01 06:25:29;;;;;;;63.78;19.52;;;2.20;99.90;;;;;;5068641;28;20090;-72
2023/12/01 06:27:56;;;;;;;61.75;19.25;;;2.10;99.90;;;;;;5053264;28;20375;-72
2023/12/01 06:30:24;;;;;;;58.58;18.15;;;2.10;99.90;;;;;;5068109;28;20490;-73
2023/12/01 06:32:52;;;;;;;49.95;16.77;;;2.10;99.90;;;;;;5068175;28;20060;-73
2023/12/01 06:35:19;;;;;;;52.92;16.45;;;2.10;99.90;;;;;;5068084;28;20020;-73
2023/12/01 06:37:46;;;;;;;47.10;15.27;;;2.10;99.90;;;;;;5068012;28;20021;-73
2023/12/01 06:40:13;;;;;;;43.95;14.52;;;2.10;99.90;;;;;;5035630;28;20251;-73
2023/12/01 06:42:40;;;;;;;44.58;13.75;;;2.10;99.90;;;;;;5067967;28;20029;-73
2023/12/01 06:45:07;;;;;;;39.08;14.15;;;2.10;99.90;;;;;;5067551;28;20024;-73
2023/12/01 06:47:32;;;;;;;44.30;14.48;;;2.00;99.90;;;;;;5063319;28;20075;-73
2023/12/01 06:49:59;;;;;;;35.03;12.30;;;2.00;99.90;;;;;;5068038;28;20110;-73
2023/12/01 06:52:25;;;;;;;41.53;13.82;;;2.00;99.90;;;;;;5067632;28;20028;-72
2023/12/01 06:54:51;;;;;;;36.75;12.60;;;2.00;99.90;;;;;;5066669;28;20024;-73
2023/12/01 06:57:16;;;;;;;39.55;13.75;;;2.00;99.90;;;;;;5062497;28;20113;-73
2023/12/01 06:59:42;;;;;;;42.47;13.88;;;2.00;99.90;;;;;;5067028;28;20058;-73
2023/12/01 07:02:07;;;;;;;42.17;13.48;;;2.00;99.90;;;;;;5067204;28;20474;-72
2023/12/01 07:04:33;;;;;;;37.20;12.38;;;2.00;99.90;;;;;;5053474;28;20047;-73
2023/12/01 07:07:00;;;;;;;40.53;13.75;;;2.00;99.90;;;;;;5067313;28;20028;-72
2023/12/01 07:09:27;;;;;;;41.03;14.23;;;1.90;99.90;;;;;;5048722;28;20078;-73
2023/12/01 07:11:53;;;;;;;40.67;13.73;;;1.90;99.90;;;;;;5065937;28;20033;-73
2023/12/01 07:14:19;;;;;;;35.88;12.55;;;1.90;99.90;;;;;;5066648;28;20461;-73
2023/12/01 07:16:45;;;;;;;35.28;11.65;;;1.90;99.90;;;;;;5048861;28;20051;-73
2023/12/01 07:19:11;;;;;;;36.20;13.43;;;1.90;99.90;;;;;;5065701;28;20028;-73
2023/12/01 07:21:37;;;;;;;38.55;12.40;;;1.90;99.90;;;;;;5066912;28;20746;-73
2023/12/01 07:24:06;;;;;;;34.13;12.85;;;1.90;99.90;;;;;;5066160;28;20039;-73
2023/12/01 07:26:33;;;;;;;33.00;12.40;;;1.80;99.90;;;;;;5066320;28;20028;-73
2023/12/01 07:29:04;;;;;;;36.05;13.23;;;1.80;99.90;;;;;;5040893;28;20052;-73
2023/12/01 07:31:35;;;;;;;39.15;12.43;;;1.80;99.90;;;;;;5066840;28;20056;-73
2023/12/01 07:34:01;;;;;;;33.53;12.50;;;1.80;99.90;;;;;;5073360;28;20020;-73
2023/12/01 07:36:28;;;;;;;34.17;12.38;;;1.70;99.90;;;;;;5070077;28;20020;-73
2023/12/01 07:38:54;;;;;;;30.88;11.80;;;1.80;99.90;;;;;;5052330;28;20055;-73
2023/12/01 07:41:21;;;;;;;29.90;10.85;;;1.70;99.90;;;;;;5048754;28;20899;-73
2023/12/01 07:43:47;;;;;;;28.45;11.02;;;1.70;99.90;;;;;;5057592;28;20024;-74
2023/12/01 07:46:12;;;;;;;36.15;13.30;;;1.70;99.90;;;;;;5046720;28;20038;-73
2023/12/01 07:48:38;;;;;;;39.45;13.02;;;1.70;99.90;;;;;;5064295;28;20394;-73
2023/12/01 07:51:04;;;;;;;34.28;12.52;;;1.70;99.90;;;;;;5054086;28;20059;-73
2023/12/01 07:53:30;;;;;;;32.90;11.90;;;1.70;99.90;;;;;;5065167;28;20126;-73
2023/12/01 07:55:56;;;;;;;35.67;12.25;;;1.70;99.90;;;;;;5047177;28;20805;-73
2023/12/01 07:58:21;;;;;;;35.20;12.30;;;1.70;99.90;;;;;;5047803;28;20048;-73
2023/12/01 08:00:47;;;;;;;48.92;14.00;;;1.70;99.90;;;;;;5055642;28;20422;-73
2023/12/01 08:03:13;;;;;;;32.67;13.45;;;1.70;99.90;;;;;;5059036;28;20086;-73
2023/12/01 08:05:39;;;;;;;37.92;14.63;;;1.70;99.90;;;;;;5046719;28;20025;-73
2023/12/01 08:08:06;;;;;;;42.72;14.95;;;1.70;99.90;;;;;;5065623;28;20437;-73
2023/12/01 08:10:32;;;;;;;36.17;12.52;;;1.70;99.90;;;;;;5065832;28;20022;-73
2023/12/01 08:12:58;;;;;;;33.05;11.57;;;1.70;99.90;;;;;;5048084;28;20099;-73
2023/12/01 08:15:24;;;;;;;37.63;12.20;;;1.70;99.90;;;;;;5063643;28;20025;-73
2023/12/01 08:17:50;;;;;;;33.35;12.73;;;1.70;99.90;;;;;;5066456;28;20016;-73
2023/12/01 08:20:18;;;;;;;29.40;11.82;;;1.70;99.90;;;;;;5064244;28;20118;-73
2023/12/01 08:22:46;;;;;;;36.85;12.75;;;1.70;99.90;;;;;;5055648;28;20111;-73
2023/12/01 08:25:12;;;;;;;34.88;12.55;;;1.70;99.90;;;;;;5062305;28;20047;-73
2023/12/01 08:27:39;;;;;;;35.72;11.95;;;1.70;99.90;;;;;;5065133;28;20021;-73
2023/12/01 08:30:07;;;;;;;33.10;11.50;;;1.60;99.90;;;;;;5048786;28;20040;-73
2023/12/01 08:32:36;;;;;;;30.55;11.52;;;1.70;99.90;;;;;;5066202;28;20052;-73
2023/12/01 08:35:03;;;;;;;29.10;10.82;;;1.70;99.90;;;;;;5065700;28;20067;-73
2023/12/01 08:37:29;;;;;;;34.85;12.40;;;1.60;99.90;;;;;;5050198;28;20052;-73
2023/12/01 08:39:54;;;;;;;33.72;11.68;;;1.60;99.90;;;;;;5062410;28;20122;-73
2023/12/01 08:42:20;;;;;;;30.33;11.32;;;1.60;99.90;;;;;;5062658;28;20039;-73
2023/12/01 08:44:46;;;;;;;30.20;11.07;;;1.60;99.90;;;;;;5044217;28;20051;-73
2023/12/01 08:47:13;;;;;;;32.15;11.38;;;1.60;99.90;;;;;;5063002;28;20063;-73
2023/12/01 08:49:39;;;;;;;34.95;11.80;;;1.60;99.90;;;;;;5062587;28;20650;-73
2023/12/01 08:52:07;;;;;;;32.58;10.90;;;1.60;99.90;;;;;;5063514;28;20024;-74
2023/12/01 08:54:33;;;;;;;29.17;11.75;;;1.60;99.90;;;;;;5064019;28;20489;-73
2023/12/01 08:56:59;;;;;;;32.45;11.65;;;1.60;99.90;;;;;;5064762;28;20028;-73
2023/12/01 08:59:24;;;;;;;33.00;11.60;;;1.60;99.90;;;;;;5051489;28;20027;-72
2023/12/01 09:01:50;;;;;;;27.05;10.65;;;1.60;99.90;;;;;;5064218;28;20756;-73
2023/12/01 09:04:17;;;;;;;32.85;11.52;;;1.60;99.90;;;;;;5065491;28;20032;-73
2023/12/01 09:06:42;;;;;;;35.92;11.40;;;1.50;99.90;;;;;;5066141;28;20031;-73
2023/12/01 09:09:08;;;;;;;29.63;11.80;;;1.50;99.90;;;;;;5065410;28;20429;-73
2023/12/01 09:11:34;;;;;;;36.33;12.10;;;1.50;99.90;;;;;;5047803;28;20401;-73
2023/12/01 09:14:00;;;;;;;29.45;10.45;;;1.50;99.90;;;;;;5065362;28;20028;-73
2023/12/01 09:16:25;;;;;;;32.40;11.10;;;1.60;99.90;;;;;;5048370;28;20028;-73
2023/12/01 09:18:51;;;;;;;35.40;12.07;;;1.60;99.90;;;;;;5042941;28;20112;-73
2023/12/01 09:21:17;;;;;;;30.00;11.65;;;1.60;99.90;;;;;;5069669;28;20552;-73
2023/12/01 09:23:44;;;;;;;30.48;11.60;;;1.60;99.90;;;;;;5050696;28;20063;-73
2023/12/01 09:26:17;;;;;;;31.85;11.68;;;1.60;99.90;;;;;;5069126;28;20025;-73
2023/12/01 09:28:43;;;;;;;32.65;12.48;;;1.60;99.90;;;;;;5068083;28;20032;-73
2023/12/01 09:31:10;;;;;;;30.95;11.27;;;1.60;99.90;;;;;;5050953;28;20052;-73
2023/12/01 09:33:37;;;;;;;33.40;11.48;;;1.60;99.90;;;;;;5068726;28;20433;-73
2023/12/01 09:36:04;;;;;;;33.08;11.25;;;1.60;99.90;;;;;;5068987;28;20048;-73
2023/12/01 09:38:30;;;;;;;29.05;10.48;;;1.60;99.90;;;;;;5063036;28;20033;-74
2023/12/01 09:40:57;;;;;;;29.33;10.52;;;1.60;99.90;;;;;;5060727;28;20102;-73
2023/12/01 09:43:23;;;;;;;32.10;10.52;;;1.60;99.90;;;;;;5053098;28;20086;-73
2023/12/01 09:45:52;;;;;;;30.27;10.45;;;1.60;99.90;;;;;;5066986;28;20665;-73
2023/12/01 09:48:19;;;;;;;29.80;11.23;;;1.60;99.90;;;;;;5050788;28;20040;-72
2023/12/01 09:50:49;;;;;;;29.75;10.35;;;1.60;99.90;;;;;;5068245;28;20028;-73
2023/12/01 09:53:16;;;;;;;30.13;10.65;;;1.50;99.90;;;;;;5050761;28;20020;-73
2023/12/01 09:55:42;;;;;;;28.08;9.75;;;1.60;99.90;;;;;;5068066;28;20512;-73
2023/12/01 09:58:09;;;;;;;30.50;10.10;;;1.50;99.90;;;;;;5050700;28;20028;-73
2023/12/01 10:00:35;;;;;;;28.95;9.98;;;1.50;99.90;;;;;;5067862;28;20017;-73
2023/12/01 10:03:01;;;;;;;29.02;10.18;;;1.50;99.90;;;;;;5068476;28;20458;-73
2023/12/01 10:05:32;;;;;;;27.13;10.15;;;1.50;99.90;;;;;;5048996;28;20036;-73
2023/12/01 10:07:58;;;;;;;;;;;1.60;99.90;;;;;;5067616;28;20731;-73
2023/12/01 10:10:26;;;;;;;30.70;9.27;;;1.60;99.90;;;;;;5067736;28;19916;-73
2023/12/01 10:13:07;;;;;;;26.42;10.15;;;1.60;99.90;;;;;;5049619;28;20035;-73
2023/12/01 10:15:37;;;;;;;30.05;9.82;;;1.50;99.90;;;;;;5046401;28;20402;-73
2023/12/01 10:18:23;;;;;;;30.00;10.55;;;1.60;99.90;;;;;;5065452;28;20028;-73
2023/12/01 10:20:59;;;;;;;27.73;10.10;;;1.60;99.90;;;;;;5055591;28;20021;-73
2023/12/01 10:23:27;;;;;;;28.20;10.15;;;1.60;99.90;;;;;;5068551;28;20024;-73
2023/12/01 10:25:53;;;;;;;26.95;10.00;;;1.70;99.90;;;;;;5067631;28;20028;-73
2023/12/01 10:28:19;;;;;;;22.80;9.27;;;1.70;99.90;;;;;;5066170;28;20522;-73
2023/12/01 10:30:53;;;;;;;30.92;10.60;;;1.70;99.90;;;;;;5067779;28;20028;-73
2023/12/01 10:33:23;;;;;;;26.33;10.07;;;1.70;99.90;;;;;;5049755;28;20044;-73
2023/12/01 10:36:07;;;;;;;27.25;9.45;;;1.70;99.90;;;;;;5067283;28;20203;-73
2023/12/01 10:38:34;;;;;;;31.80;10.40;;;1.70;99.90;;;;;;5060317;28;20024;-73
2023/12/01 10:41:03;;;;;;;29.27;10.68;;;1.70;99.90;;;;;;5067268;28;20147;-73
2023/12/01 10:43:29;;;;;;;28.88;11.18;;;1.70;99.90;;;;;;5067817;28;20138;-73
2023/12/01 10:46:03;;;;;;;32.22;11.20;;;1.60;99.90;;;;;;5066495;28;20058;-74
2023/12/01 10:48:31;;;;;;;34.15;11.77;;;1.60;99.90;;;;;;5064106;28;20125;-73
2023/12/01 10:50:57;;;;;;;30.08;11.70;;;1.70;99.90;;;;;;5067453;28;20028;-73
2023/12/01 10:53:26;;;;;;;32.22;12.20;;;1.70;99.90;;;;;;5064514;28;20027;-74
2023/12/01 10:55:54;;;;;;;25.90;10.27;;;1.70;99.90;;;;;;5066947;28;20020;-74
2023/12/01 10:58:22;;;;;;;27.58;10.55;;;1.70;99.90;;;;;;5066546;28;20389;-74
2023/12/01 11:00:53;;;;;;;35.22;12.40;;;1.70;99.90;;;;;;5066815;28;20009;-74
2023/12/01 11:03:23;;;;;;;31.60;11.35;;;1.70;99.90;;;;;;5067145;28;20754;-74
2023/12/01 11:06:31;;;;;;;33.63;12.47;;;1.70;99.90;;;;;;5067057;28;20024;-75
2023/12/01 11:09:14;;;;;;;30.17;11.18;;;1.70;99.90;;;;;;5056914;28;20313;-74
2023/12/01 11:12:08;;;;;;;34.08;11.48;;;1.70;99.90;;;;;;5067185;28;20036;-74
2023/12/01 11:14:37;;;;;;;31.05;12.25;;;1.70;99.90;;;;;;5066433;28;20095;-74
2023/12/01 11:17:04;;;;;;;35.10;11.77;;;1.80;99.90;;;;;;5049211;28;20034;-74
2023/12/01 11:19:39;;;;;;;33.05;11.95;;;1.80;99.90;;;;;;5066874;28;20569;-74
2023/12/01 11:22:24;;;;;;;30.13;11.13;;;1.80;99.90;;;;;;5058330;28;20021;-74
2023/12/01 11:24:50;;;;;;;32.65;11.57;;;1.80;99.90;;;;;;5066551;28;20157;-75
2023/12/01 11:27:16;;;;;;;28.25;10.98;;;1.80;99.90;;;;;;5066951;28;20020;-75
2023/12/01 11:30:12;;;;;;;35.60;12.40;;;1.80;99.90;;;;;;5051055;28;20087;-74
2023/12/01 11:32:41;;;;;;;31.38;11.43;;;1.80;99.90;;;;;;5066880;28;20024;-74
2023/12/01 11:35:09;;;;;;;27.77;11.10;;;1.90;99.90;;;;;;5066381;28;20182;-74
2023/12/01 11:37:56;;;;;;;29.65;10.60;;;1.90;99.90;;;;;;5067111;28;20017;-74
2023/12/01 11:40:22;;;;;;;28.02;11.05;;;1.90;99.90;;;;;;5053058;28;20517;-74
2023/12/01 11:42:51;;;;;;;29.17;10.68;;;1.90;99.90;;;;;;5066486;28;20024;-74
2023/12/01 11:45:34;;;;;;;31.15;11.43;;;1.90;99.90;;;;;;5066146;28;20040;-74
2023/12/01 11:48:02;;;;;;;27.30;11.05;;;1.90;99.90;;;;;;5066942;28;20480;-74
2023/12/01 11:50:28;;;;;;;30.90;11.95;;;1.90;99.90;;;;;;5066284;28;20107;-74
2023/12/01 11:52:55;;;;;;;33.08;11.27;;;1.90;99.90;;;;;;5059847;28;20111;-74
2023/12/01 11:55:21;;;;;;;33.50;12.07;;;1.90;99.90;;;;;;5066157;28;20028;-74
2023/12/01 11:57:56;;;;;;;32.15;11.55;;;1.90;99.90;;;;;;5066001;28;20020;-74
2023/12/01 12:00:22;;;;;;;31.00;11.43;;;1.90;99.90;;;;;;5065994;28;20077;-75
2023/12/01 12:02:47;;;;;;;31.45;11.18;;;1.90;99.90;;;;;;5066209;28;20421;-74
2023/12/01 12:05:13;;;;;;;31.77;11.07;;;1.90;99.90;;;;;;5066154;28;20040;-74
2023/12/01 12:07:41;;;;;;;31.08;11.20;;;1.90;99.90;;;;;;5048579;28;20013;-74
2023/12/01 12:10:08;;;;;;;32.42;11.68;;;1.90;99.90;;;;;;5066124;28;20021;-74
2023/12/01 12:12:34;;;;;;;29.42;11.05;;;1.90;99.90;;;;;;5066145;28;20676;-74
2023/12/01 12:15:09;;;;;;;29.73;11.50;;;1.90;99.90;;;;;;5066019;28;20013;-74
2023/12/01 12:17:37;;;;;;;32.28;11.60;;;1.90;99.90;;;;;;5061766;28;20034;-74
2023/12/01 12:20:05;;;;;;;28.83;11.32;;;1.90;99.90;;;;;;5047867;28;20397;-74
2023/12/01 12:22:31;;;;;;;26.08;11.45;;;1.90;99.90;;;;;;5066089;28;20508;-73
2023/12/01 12:24:56;;;;;;;28.42;11.63;;;1.90;99.90;;;;;;5065971;28;20021;-74
2023/12/01 12:27:22;;;;;;;31.08;11.95;;;1.90;99.90;;;;;;5051933;28;20111;-74
2023/12/01 12:29:49;;;;;;;29.30;11.32;;;1.90;99.90;;;;;;5065614;28;20094;-74
2023/12/01 12:32:15;;;;;;;28.33;11.95;;;1.90;99.90;;;;;;5066045;28;20021;-74
2023/12/01 12:34:41;;;;;;;30.60;11.40;;;1.80;99.90;;;;;;5065775;28;20120;-73
2023/12/01 12:37:11;;;;;;;33.70;12.02;;;1.90;99.90;;;;;;5066533;28;20096;-73
2023/12/01 12:39:36;;;;;;;26.08;10.73;;;1.90;99.90;;;;;;5051327;28;20080;-74